sensor_id;sensor_type;location;lat;lon;timestamp;P1;durP1;ratioP1;P2;durP2;ratioP2
6141;SDS011;71289;51.552;6.210;2023-07-31T00:00:13;19.93;;;9.83;;
6141;SDS011;71289;51.552;6.210;2023-07-31T00:02:39;30.20;;;11.97;;
6141;SDS011;71289;51.552;6.210;2023-07-31T00:05:04;34.30;;;11.20;;
6141;SDS011;71289;51.552;6.210;2023-07-31T00:07:31;31.13;;;11.87;;
6141;SDS011;71289;51.552;6.210;2023-07-31T00:09:57;36.43;;;13.50;;
6141;SDS011;71289;51.552;6.210;2023-07-31T00:12:23;33.07;;;13.10;;
6141;SDS011;71289;51.552;6.210;2023-07-31T00:14:48;26.90;;;12.00;;
6141;SDS011;71289;51.552;6.210;2023-07-31T00:17:14;32.77;;;12.80;;
6141;SDS011;71289;51.552;6.210;2023-07-31T00:19:42;41.27;;;12.80;;
6141;SDS011;71289;51.552;6.210;2023-07-31T00:22:08;33.13;;;12.67;;
6141;SDS011;71289;51.552;6.210;2023-07-31T00:24:33;32.67;;;13.53;;
6141;SDS011;71289;51.552;6.210;2023-07-31T00:26:59;48.23;;;15.70;;
6141;SDS011;71289;51.552;6.210;2023-07-31T00:29:24;40.23;;;12.67;;
6141;SDS011;71289;51.552;6.210;2023-07-31T00:31:50;30.00;;;12.60;;
6141;SDS011;71289;51.552;6.210;2023-07-31T00:34:15;33.27;;;13.30;;
6141;SDS011;71289;51.552;6.210;2023-07-31T00:36:41;36.00;;;12.37;;
6141;SDS011;71289;51.552;6.210;2023-07-31T00:39:06;28.50;;;11.53;;
6141;SDS011;71289;51.552;6.210;2023-07-31T00:41:32;32.43;;;12.30;;
6141;SDS011;71289;51.552;6.210;2023-07-31T00:43:57;37.30;;;13.03;;
6141;SDS011;71289;51.552;6.210;2023-07-31T00:46:23;39.13;;;11.67;;
6141;SDS011;71289;51.552;6.210;2023-07-31T00:48:48;33.43;;;11.07;;
6141;SDS011;71289;51.552;6.210;2023-07-31T00:51:14;32.43;;;10.73;;
6141;SDS011;71289;51.552;6.210;2023-07-31T00:53:40;35.00;;;11.70;;
6141;SDS011;71289;51.552;6.210;2023-07-31T00:56:06;24.37;;;11.03;;
6141;SDS011;71289;51.552;6.210;2023-07-31T00:58:32;33.23;;;10.70;;
6141;SDS011;71289;51.552;6.210;2023-07-31T01:00:58;21.40;;;9.40;;
6141;SDS011;71289;51.552;6.210;2023-07-31T01:03:23;24.57;;;8.97;;
6141;SDS011;71289;51.552;6.210;2023-07-31T01:08:48;29.13;;;11.40;;
6141;SDS011;71289;51.552;6.210;2023-07-31T01:11:19;29.43;;;7.87;;
6141;SDS011;71289;51.552;6.210;2023-07-31T01:13:52;36.27;;;9.80;;
6141;SDS011;71289;51.552;6.210;2023-07-31T01:16:19;25.00;;;10.03;;
6141;SDS011;71289;51.552;6.210;2023-07-31T01:18:44;32.10;;;9.17;;
6141;SDS011;71289;51.552;6.210;2023-07-31T01:27:06;24.97;;;8.80;;
6141;SDS011;71289;51.552;6.210;2023-07-31T01:29:38;27.70;;;9.70;;
6141;SDS011;71289;51.552;6.210;2023-07-31T01:32:09;32.03;;;9.13;;
6141;SDS011;71289;51.552;6.210;2023-07-31T01:34:36;23.40;;;8.17;;
6141;SDS011;71289;51.552;6.210;2023-07-31T01:37:03;24.27;;;8.00;;
6141;SDS011;71289;51.552;6.210;2023-07-31T01:39:28;31.70;;;10.57;;
6141;SDS011;71289;51.552;6.210;2023-07-31T01:41:54;20.87;;;6.87;;
6141;SDS011;71289;51.552;6.210;2023-07-31T01:44:19;22.23;;;8.17;;
6141;SDS011;71289;51.552;6.210;2023-07-31T01:46:45;26.50;;;8.63;;
6141;SDS011;71289;51.552;6.210;2023-07-31T01:49:11;25.97;;;8.13;;
6141;SDS011;71289;51.552;6.210;2023-07-31T01:51:36;27.23;;;8.63;;
6141;SDS011;71289;51.552;6.210;2023-07-31T01:54:02;20.50;;;8.97;;
6141;SDS011;71289;51.552;6.210;2023-07-31T01:56:28;23.50;;;7.90;;
6141;SDS011;71289;51.552;6.210;2023-07-31T01:58:53;19.80;;;8.27;;
6141;SDS011;71289;51.552;6.210;2023-07-31T02:01:19;30.63;;;8.70;;
6141;SDS011;71289;51.552;6.210;2023-07-31T02:03:44;20.60;;;7.87;;
6141;SDS011;71289;51.552;6.210;2023-07-31T02:06:10;24.80;;;10.10;;
6141;SDS011;71289;51.552;6.210;2023-07-31T02:08:35;19.53;;;7.50;;
6141;SDS011;71289;51.552;6.210;2023-07-31T02:11:01;35.37;;;8.83;;
6141;SDS011;71289;51.552;6.210;2023-07-31T02:13:27;29.57;;;8.43;;
6141;SDS011;71289;51.552;6.210;2023-07-31T02:15:52;25.40;;;8.87;;
6141;SDS011;71289;51.552;6.210;2023-07-31T02:18:18;18.63;;;7.40;;
6141;SDS011;71289;51.552;6.210;2023-07-31T02:20:48;19.20;;;8.13;;
6141;SDS011;71289;51.552;6.210;2023-07-31T02:23:18;18.87;;;7.23;;
6141;SDS011;71289;51.552;6.210;2023-07-31T02:25:44;23.80;;;9.40;;
6141;SDS011;71289;51.552;6.210;2023-07-31T02:28:10;22.83;;;9.20;;
6141;SDS011;71289;51.552;6.210;2023-07-31T02:30:36;21.80;;;7.20;;
6141;SDS011;71289;51.552;6.210;2023-07-31T02:33:01;24.40;;;8.13;;
6141;SDS011;71289;51.552;6.210;2023-07-31T02:35:27;38.90;;;9.30;;
6141;SDS011;71289;51.552;6.210;2023-07-31T02:37:52;25.90;;;8.50;;
6141;SDS011;71289;51.552;6.210;2023-07-31T02:40:18;22.83;;;8.67;;
6141;SDS011;71289;51.552;6.210;2023-07-31T02:42:44;24.70;;;6.83;;
6141;SDS011;71289;51.552;6.210;2023-07-31T02:45:09;31.93;;;9.17;;
6141;SDS011;71289;51.552;6.210;2023-07-31T02:47:35;16.97;;;8.60;;
6141;SDS011;71289;51.552;6.210;2023-07-31T02:50:01;18.07;;;8.27;;
6141;SDS011;71289;51.552;6.210;2023-07-31T02:52:27;19.03;;;9.17;;
6141;SDS011;71289;51.552;6.210;2023-07-31T02:54:53;21.13;;;8.93;;
6141;SDS011;71289;51.552;6.210;2023-07-31T02:57:18;22.43;;;8.80;;
6141;SDS011;71289;51.552;6.210;2023-07-31T02:59:44;30.77;;;9.00;;
6141;SDS011;71289;51.552;6.210;2023-07-31T03:02:09;19.57;;;7.40;;
6141;SDS011;71289;51.552;6.210;2023-07-31T03:04:36;22.17;;;8.70;;
6141;SDS011;71289;51.552;6.210;2023-07-31T03:07:01;24.80;;;8.00;;
6141;SDS011;71289;51.552;6.210;2023-07-31T03:09:27;29.73;;;8.67;;
6141;SDS011;71289;51.552;6.210;2023-07-31T03:11:53;21.53;;;7.90;;
6141;SDS011;71289;51.552;6.210;2023-07-31T03:14:18;27.73;;;7.67;;
6141;SDS011;71289;51.552;6.210;2023-07-31T03:16:44;24.70;;;8.60;;
6141;SDS011;71289;51.552;6.210;2023-07-31T03:19:09;37.30;;;7.97;;
6141;SDS011;71289;51.552;6.210;2023-07-31T03:21:35;19.10;;;8.27;;
6141;SDS011;71289;51.552;6.210;2023-07-31T03:24:00;15.20;;;8.00;;
6141;SDS011;71289;51.552;6.210;2023-07-31T03:26:26;24.23;;;7.40;;
6141;SDS011;71289;51.552;6.210;2023-07-31T03:28:51;22.00;;;7.27;;
6141;SDS011;71289;51.552;6.210;2023-07-31T03:31:17;23.77;;;7.87;;
6141;SDS011;71289;51.552;6.210;2023-07-31T03:33:42;24.03;;;9.80;;
6141;SDS011;71289;51.552;6.210;2023-07-31T03:36:08;17.40;;;8.20;;
6141;SDS011;71289;51.552;6.210;2023-07-31T03:38:34;17.87;;;7.83;;
6141;SDS011;71289;51.552;6.210;2023-07-31T03:40:59;21.83;;;8.87;;
6141;SDS011;71289;51.552;6.210;2023-07-31T03:43:25;45.27;;;10.13;;
6141;SDS011;71289;51.552;6.210;2023-07-31T03:45:51;21.00;;;7.30;;
6141;SDS011;71289;51.552;6.210;2023-07-31T03:48:16;36.93;;;8.60;;
6141;SDS011;71289;51.552;6.210;2023-07-31T03:50:42;22.13;;;8.23;;
6141;SDS011;71289;51.552;6.210;2023-07-31T03:53:07;36.17;;;10.73;;
6141;SDS011;71289;51.552;6.210;2023-07-31T03:55:33;33.37;;;9.00;;
6141;SDS011;71289;51.552;6.210;2023-07-31T03:57:58;19.47;;;7.70;;
6141;SDS011;71289;51.552;6.210;2023-07-31T04:00:25;23.20;;;6.70;;
6141;SDS011;71289;51.552;6.210;2023-07-31T04:02:52;23.33;;;8.10;;
6141;SDS011;71289;51.552;6.210;2023-07-31T04:05:17;24.73;;;9.17;;
6141;SDS011;71289;51.552;6.210;2023-07-31T04:07:43;24.10;;;9.80;;
6141;SDS011;71289;51.552;6.210;2023-07-31T04:10:08;21.97;;;8.50;;
6141;SDS011;71289;51.552;6.210;2023-07-31T04:12:34;19.80;;;7.43;;
6141;SDS011;71289;51.552;6.210;2023-07-31T04:15:00;31.93;;;9.97;;
6141;SDS011;71289;51.552;6.210;2023-07-31T04:17:25;28.10;;;10.77;;
6141;SDS011;71289;51.552;6.210;2023-07-31T04:19:51;22.20;;;8.60;;
6141;SDS011;71289;51.552;6.210;2023-07-31T04:22:16;35.10;;;10.47;;
6141;SDS011;71289;51.552;6.210;2023-07-31T04:24:42;30.40;;;8.97;;
6141;SDS011;71289;51.552;6.210;2023-07-31T04:27:07;19.37;;;7.53;;
6141;SDS011;71289;51.552;6.210;2023-07-31T04:29:33;22.87;;;8.67;;
6141;SDS011;71289;51.552;6.210;2023-07-31T04:31:59;32.23;;;9.53;;
6141;SDS011;71289;51.552;6.210;2023-07-31T04:34:24;23.90;;;7.80;;
6141;SDS011;71289;51.552;6.210;2023-07-31T04:36:50;31.13;;;8.97;;
6141;SDS011;71289;51.552;6.210;2023-07-31T04:39:15;27.43;;;9.27;;
6141;SDS011;71289;51.552;6.210;2023-07-31T04:41:41;26.83;;;7.90;;
6141;SDS011;71289;51.552;6.210;2023-07-31T04:44:06;31.30;;;9.30;;
6141;SDS011;71289;51.552;6.210;2023-07-31T04:46:32;20.93;;;7.70;;
6141;SDS011;71289;51.552;6.210;2023-07-31T04:48:57;29.33;;;9.13;;
6141;SDS011;71289;51.552;6.210;2023-07-31T04:51:23;20.73;;;7.83;;
6141;SDS011;71289;51.552;6.210;2023-07-31T04:53:48;27.33;;;8.70;;
6141;SDS011;71289;51.552;6.210;2023-07-31T04:56:14;29.87;;;9.70;;
6141;SDS011;71289;51.552;6.210;2023-07-31T04:58:40;32.50;;;11.50;;
6141;SDS011;71289;51.552;6.210;2023-07-31T05:01:06;19.33;;;7.83;;
6141;SDS011;71289;51.552;6.210;2023-07-31T05:03:31;27.33;;;9.87;;
6141;SDS011;71289;51.552;6.210;2023-07-31T05:05:57;16.67;;;8.60;;
6141;SDS011;71289;51.552;6.210;2023-07-31T05:08:22;19.97;;;7.63;;
6141;SDS011;71289;51.552;6.210;2023-07-31T05:10:48;23.57;;;8.60;;
6141;SDS011;71289;51.552;6.210;2023-07-31T05:13:13;23.10;;;9.30;;
6141;SDS011;71289;51.552;6.210;2023-07-31T05:15:40;15.70;;;7.80;;
6141;SDS011;71289;51.552;6.210;2023-07-31T05:18:06;19.40;;;9.07;;
6141;SDS011;71289;51.552;6.210;2023-07-31T05:20:32;27.47;;;8.80;;
6141;SDS011;71289;51.552;6.210;2023-07-31T05:22:57;19.40;;;8.13;;
6141;SDS011;71289;51.552;6.210;2023-07-31T05:25:23;12.57;;;7.83;;
6141;SDS011;71289;51.552;6.210;2023-07-31T05:27:48;16.93;;;7.70;;
6141;SDS011;71289;51.552;6.210;2023-07-31T05:30:14;19.93;;;8.20;;
6141;SDS011;71289;51.552;6.210;2023-07-31T05:32:39;24.30;;;8.60;;
6141;SDS011;71289;51.552;6.210;2023-07-31T05:35:05;18.00;;;8.23;;
6141;SDS011;71289;51.552;6.210;2023-07-31T05:37:30;26.87;;;8.73;;
6141;SDS011;71289;51.552;6.210;2023-07-31T05:39:56;17.50;;;7.47;;
6141;SDS011;71289;51.552;6.210;2023-07-31T05:42:21;22.30;;;8.27;;
6141;SDS011;71289;51.552;6.210;2023-07-31T05:44:47;19.73;;;8.23;;
6141;SDS011;71289;51.552;6.210;2023-07-31T05:47:13;12.60;;;7.40;;
6141;SDS011;71289;51.552;6.210;2023-07-31T05:49:38;22.27;;;7.60;;
6141;SDS011;71289;51.552;6.210;2023-07-31T05:52:04;11.63;;;7.80;;
6141;SDS011;71289;51.552;6.210;2023-07-31T05:54:30;13.43;;;7.80;;
6141;SDS011;71289;51.552;6.210;2023-07-31T05:56:57;12.87;;;7.80;;
6141;SDS011;71289;51.552;6.210;2023-07-31T05:59:22;16.90;;;7.30;;
6141;SDS011;71289;51.552;6.210;2023-07-31T06:01:48;29.43;;;8.50;;
6141;SDS011;71289;51.552;6.210;2023-07-31T06:04:13;14.57;;;7.97;;
6141;SDS011;71289;51.552;6.210;2023-07-31T06:06:39;15.17;;;8.70;;
6141;SDS011;71289;51.552;6.210;2023-07-31T06:09:05;18.60;;;8.93;;
6141;SDS011;71289;51.552;6.210;2023-07-31T06:11:30;18.80;;;10.20;;
6141;SDS011;71289;51.552;6.210;2023-07-31T06:13:56;17.00;;;9.47;;
6141;SDS011;71289;51.552;6.210;2023-07-31T06:16:21;25.43;;;11.10;;
6141;SDS011;71289;51.552;6.210;2023-07-31T06:18:47;17.70;;;12.23;;
6141;SDS011;71289;51.552;6.210;2023-07-31T06:21:13;18.57;;;10.30;;
6141;SDS011;71289;51.552;6.210;2023-07-31T06:23:38;30.17;;;11.13;;
6141;SDS011;71289;51.552;6.210;2023-07-31T06:26:04;19.50;;;11.40;;
6141;SDS011;71289;51.552;6.210;2023-07-31T06:28:30;18.50;;;11.70;;
6141;SDS011;71289;51.552;6.210;2023-07-31T06:30:57;21.70;;;9.37;;
6141;SDS011;71289;51.552;6.210;2023-07-31T06:33:23;19.63;;;11.13;;
6141;SDS011;71289;51.552;6.210;2023-07-31T06:35:49;20.47;;;10.40;;
6141;SDS011;71289;51.552;6.210;2023-07-31T06:38:14;22.87;;;11.20;;
6141;SDS011;71289;51.552;6.210;2023-07-31T06:40:40;15.77;;;10.60;;
6141;SDS011;71289;51.552;6.210;2023-07-31T06:43:06;20.93;;;11.10;;
6141;SDS011;71289;51.552;6.210;2023-07-31T06:45:36;17.63;;;10.73;;
6141;SDS011;71289;51.552;6.210;2023-07-31T06:48:03;24.30;;;10.90;;
6141;SDS011;71289;51.552;6.210;2023-07-31T06:50:29;18.60;;;10.23;;
6141;SDS011;71289;51.552;6.210;2023-07-31T06:52:55;20.63;;;10.03;;
6141;SDS011;71289;51.552;6.210;2023-07-31T06:55:21;19.20;;;9.17;;
6141;SDS011;71289;51.552;6.210;2023-07-31T06:57:47;25.80;;;10.20;;
6141;SDS011;71289;51.552;6.210;2023-07-31T07:00:14;22.47;;;11.57;;
6141;SDS011;71289;51.552;6.210;2023-07-31T07:02:40;14.37;;;9.00;;
6141;SDS011;71289;51.552;6.210;2023-07-31T07:05:06;16.40;;;10.37;;
6141;SDS011;71289;51.552;6.210;2023-07-31T07:07:32;21.77;;;9.60;;
6141;SDS011;71289;51.552;6.210;2023-07-31T07:09:58;15.43;;;9.70;;
6141;SDS011;71289;51.552;6.210;2023-07-31T07:12:29;21.80;;;9.50;;
6141;SDS011;71289;51.552;6.210;2023-07-31T07:14:56;19.27;;;8.67;;
6141;SDS011;71289;51.552;6.210;2023-07-31T07:17:22;20.10;;;10.30;;
6141;SDS011;71289;51.552;6.210;2023-07-31T07:19:48;13.97;;;7.93;;
6141;SDS011;71289;51.552;6.210;2023-07-31T07:22:14;16.87;;;9.70;;
6141;SDS011;71289;51.552;6.210;2023-07-31T07:24:40;13.97;;;8.20;;
6141;SDS011;71289;51.552;6.210;2023-07-31T07:27:05;21.87;;;9.93;;
6141;SDS011;71289;51.552;6.210;2023-07-31T07:29:31;16.07;;;8.70;;
6141;SDS011;71289;51.552;6.210;2023-07-31T07:31:56;15.33;;;8.20;;
6141;SDS011;71289;51.552;6.210;2023-07-31T07:34:22;15.03;;;7.67;;
6141;SDS011;71289;51.552;6.210;2023-07-31T07:36:50;14.70;;;8.10;;
6141;SDS011;71289;51.552;6.210;2023-07-31T07:39:15;14.90;;;8.00;;
6141;SDS011;71289;51.552;6.210;2023-07-31T07:41:41;16.20;;;8.30;;
6141;SDS011;71289;51.552;6.210;2023-07-31T07:44:07;10.47;;;7.50;;
6141;SDS011;71289;51.552;6.210;2023-07-31T07:46:33;12.83;;;7.90;;
6141;SDS011;71289;51.552;6.210;2023-07-31T07:48:59;14.00;;;7.80;;
6141;SDS011;71289;51.552;6.210;2023-07-31T07:51:24;15.23;;;8.40;;
6141;SDS011;71289;51.552;6.210;2023-07-31T07:53:50;18.70;;;9.13;;
6141;SDS011;71289;51.552;6.210;2023-07-31T07:56:16;21.20;;;9.70;;
6141;SDS011;71289;51.552;6.210;2023-07-31T07:58:41;15.90;;;8.40;;
6141;SDS011;71289;51.552;6.210;2023-07-31T08:01:07;18.60;;;10.13;;
6141;SDS011;71289;51.552;6.210;2023-07-31T08:03:32;16.90;;;8.17;;
6141;SDS011;71289;51.552;6.210;2023-07-31T08:06:01;13.80;;;7.90;;
6141;SDS011;71289;51.552;6.210;2023-07-31T08:08:27;12.37;;;7.87;;
6141;SDS011;71289;51.552;6.210;2023-07-31T08:10:53;17.37;;;7.90;;
6141;SDS011;71289;51.552;6.210;2023-07-31T08:13:19;11.37;;;6.63;;
6141;SDS011;71289;51.552;6.210;2023-07-31T08:15:44;11.37;;;7.10;;
6141;SDS011;71289;51.552;6.210;2023-07-31T08:18:10;16.23;;;8.57;;
6141;SDS011;71289;51.552;6.210;2023-07-31T08:20:36;19.03;;;7.43;;
6141;SDS011;71289;51.552;6.210;2023-07-31T08:23:02;12.80;;;6.77;;
6141;SDS011;71289;51.552;6.210;2023-07-31T08:25:28;11.00;;;7.50;;
6141;SDS011;71289;51.552;6.210;2023-07-31T08:27:54;11.27;;;7.03;;
6141;SDS011;71289;51.552;6.210;2023-07-31T08:30:20;13.40;;;7.97;;
6141;SDS011;71289;51.552;6.210;2023-07-31T08:32:46;14.93;;;8.03;;
6141;SDS011;71289;51.552;6.210;2023-07-31T08:35:12;13.20;;;7.73;;
6141;SDS011;71289;51.552;6.210;2023-07-31T08:37:38;12.30;;;7.60;;
6141;SDS011;71289;51.552;6.210;2023-07-31T08:40:04;18.97;;;8.00;;
6141;SDS011;71289;51.552;6.210;2023-07-31T08:42:30;14.30;;;7.93;;
6141;SDS011;71289;51.552;6.210;2023-07-31T08:44:56;12.80;;;8.73;;
6141;SDS011;71289;51.552;6.210;2023-07-31T08:47:22;14.40;;;7.70;;
6141;SDS011;71289;51.552;6.210;2023-07-31T08:49:49;15.80;;;7.93;;
6141;SDS011;71289;51.552;6.210;2023-07-31T08:52:16;13.93;;;8.27;;
6141;SDS011;71289;51.552;6.210;2023-07-31T08:54:41;11.23;;;7.80;;
6141;SDS011;71289;51.552;6.210;2023-07-31T08:57:07;18.70;;;9.40;;
6141;SDS011;71289;51.552;6.210;2023-07-31T08:59:34;13.70;;;8.57;;
6141;SDS011;71289;51.552;6.210;2023-07-31T09:02:03;20.93;;;8.87;;
6141;SDS011;71289;51.552;6.210;2023-07-31T09:04:32;15.47;;;9.50;;
6141;SDS011;71289;51.552;6.210;2023-07-31T09:06:59;15.03;;;9.80;;
6141;SDS011;71289;51.552;6.210;2023-07-31T09:09:30;18.17;;;8.80;;
6141;SDS011;71289;51.552;6.210;2023-07-31T09:11:57;13.37;;;9.10;;
6141;SDS011;71289;51.552;6.210;2023-07-31T09:14:24;17.83;;;9.70;;
6141;SDS011;71289;51.552;6.210;2023-07-31T09:16:54;23.60;;;9.20;;
6141;SDS011;71289;51.552;6.210;2023-07-31T09:19:25;13.60;;;8.67;;
6141;SDS011;71289;51.552;6.210;2023-07-31T09:21:52;13.60;;;9.57;;
6141;SDS011;71289;51.552;6.210;2023-07-31T09:24:35;20.97;;;9.47;;
6141;SDS011;71289;51.552;6.210;2023-07-31T09:27:01;20.90;;;10.70;;
6141;SDS011;71289;51.552;6.210;2023-07-31T09:29:27;16.50;;;9.60;;
6141;SDS011;71289;51.552;6.210;2023-07-31T09:31:54;15.03;;;9.10;;
6141;SDS011;71289;51.552;6.210;2023-07-31T09:34:20;18.00;;;9.07;;
6141;SDS011;71289;51.552;6.210;2023-07-31T09:36:54;22.07;;;9.43;;
6141;SDS011;71289;51.552;6.210;2023-07-31T09:39:21;18.13;;;9.73;;
6141;SDS011;71289;51.552;6.210;2023-07-31T09:41:47;16.50;;;9.60;;
6141;SDS011;71289;51.552;6.210;2023-07-31T09:44:19;16.57;;;10.33;;
6141;SDS011;71289;51.552;6.210;2023-07-31T09:46:45;23.30;;;9.23;;
6141;SDS011;71289;51.552;6.210;2023-07-31T09:49:11;15.17;;;9.40;;
6141;SDS011;71289;51.552;6.210;2023-07-31T09:51:39;20.47;;;10.03;;
6141;SDS011;71289;51.552;6.210;2023-07-31T09:54:13;29.87;;;10.70;;
6141;SDS011;71289;51.552;6.210;2023-07-31T09:56:43;18.20;;;10.40;;
6141;SDS011;71289;51.552;6.210;2023-07-31T09:59:11;17.10;;;11.00;;
6141;SDS011;71289;51.552;6.210;2023-07-31T10:01:39;23.53;;;10.70;;
6141;SDS011;71289;51.552;6.210;2023-07-31T10:04:07;18.73;;;10.20;;
6141;SDS011;71289;51.552;6.210;2023-07-31T10:06:34;29.37;;;10.60;;
6141;SDS011;71289;51.552;6.210;2023-07-31T10:09:00;16.73;;;11.00;;
6141;SDS011;71289;51.552;6.210;2023-07-31T10:11:28;20.30;;;9.47;;
6141;SDS011;71289;51.552;6.210;2023-07-31T10:13:55;26.30;;;9.53;;
6141;SDS011;71289;51.552;6.210;2023-07-31T10:16:21;18.20;;;9.87;;
6141;SDS011;71289;51.552;6.210;2023-07-31T10:18:48;15.30;;;9.90;;
6141;SDS011;71289;51.552;6.210;2023-07-31T10:21:14;13.20;;;8.47;;
6141;SDS011;71289;51.552;6.210;2023-07-31T10:23:40;18.17;;;8.93;;
6141;SDS011;71289;51.552;6.210;2023-07-31T10:26:07;17.00;;;9.30;;
6141;SDS011;71289;51.552;6.210;2023-07-31T10:28:33;17.40;;;7.77;;
6141;SDS011;71289;51.552;6.210;2023-07-31T10:31:01;19.63;;;9.10;;
6141;SDS011;71289;51.552;6.210;2023-07-31T10:33:28;12.97;;;8.73;;
6141;SDS011;71289;51.552;6.210;2023-07-31T10:36:13;14.83;;;9.53;;
6141;SDS011;71289;51.552;6.210;2023-07-31T10:38:40;13.00;;;7.97;;
6141;SDS011;71289;51.552;6.210;2023-07-31T10:41:08;18.87;;;8.43;;
6141;SDS011;71289;51.552;6.210;2023-07-31T10:43:35;19.40;;;8.07;;
6141;SDS011;71289;51.552;6.210;2023-07-31T10:46:07;17.63;;;9.00;;
6141;SDS011;71289;51.552;6.210;2023-07-31T10:48:34;14.53;;;8.20;;
6141;SDS011;71289;51.552;6.210;2023-07-31T10:51:02;15.50;;;8.20;;
6141;SDS011;71289;51.552;6.210;2023-07-31T10:53:35;13.40;;;7.93;;
6141;SDS011;71289;51.552;6.210;2023-07-31T10:56:02;19.10;;;8.50;;
6141;SDS011;71289;51.552;6.210;2023-07-31T10:58:29;12.10;;;8.47;;
6141;SDS011;71289;51.552;6.210;2023-07-31T11:01:02;16.20;;;8.80;;
6141;SDS011;71289;51.552;6.210;2023-07-31T11:03:48;10.87;;;7.33;;
6141;SDS011;71289;51.552;6.210;2023-07-31T11:06:17;12.50;;;7.50;;
6141;SDS011;71289;51.552;6.210;2023-07-31T11:08:49;10.17;;;6.20;;
6141;SDS011;71289;51.552;6.210;2023-07-31T11:11:16;10.77;;;7.03;;
6141;SDS011;71289;51.552;6.210;2023-07-31T11:13:44;12.00;;;6.87;;
6141;SDS011;71289;51.552;6.210;2023-07-31T11:16:14;10.43;;;6.83;;
6141;SDS011;71289;51.552;6.210;2023-07-31T11:18:40;9.60;;;6.47;;
6141;SDS011;71289;51.552;6.210;2023-07-31T11:21:07;11.80;;;6.73;;
6141;SDS011;71289;51.552;6.210;2023-07-31T11:23:33;11.97;;;6.77;;
6141;SDS011;71289;51.552;6.210;2023-07-31T11:26:01;12.63;;;8.10;;
6141;SDS011;71289;51.552;6.210;2023-07-31T11:28:31;16.67;;;8.90;;
6141;SDS011;71289;51.552;6.210;2023-07-31T11:31:00;15.63;;;9.63;;
6141;SDS011;71289;51.552;6.210;2023-07-31T11:33:26;19.50;;;8.63;;
6141;SDS011;71289;51.552;6.210;2023-07-31T11:35:52;13.53;;;8.03;;
6141;SDS011;71289;51.552;6.210;2023-07-31T11:38:21;14.83;;;7.67;;
6141;SDS011;71289;51.552;6.210;2023-07-31T11:40:54;13.27;;;7.17;;
6141;SDS011;71289;51.552;6.210;2023-07-31T11:43:21;10.33;;;7.40;;
6141;SDS011;71289;51.552;6.210;2023-07-31T11:45:48;9.40;;;6.80;;
6141;SDS011;71289;51.552;6.210;2023-07-31T11:48:18;14.33;;;7.80;;
6141;SDS011;71289;51.552;6.210;2023-07-31T11:50:49;6.93;;;5.60;;
6141;SDS011;71289;51.552;6.210;2023-07-31T11:53:16;10.20;;;7.00;;
6141;SDS011;71289;51.552;6.210;2023-07-31T11:55:45;7.97;;;5.87;;
6141;SDS011;71289;51.552;6.210;2023-07-31T11:58:11;7.03;;;6.10;;
6141;SDS011;71289;51.552;6.210;2023-07-31T12:00:38;7.27;;;5.87;;
6141;SDS011;71289;51.552;6.210;2023-07-31T12:03:04;7.80;;;5.40;;
6141;SDS011;71289;51.552;6.210;2023-07-31T12:05:30;11.93;;;7.20;;
6141;SDS011;71289;51.552;6.210;2023-07-31T12:07:55;6.23;;;5.13;;
6141;SDS011;71289;51.552;6.210;2023-07-31T12:10:24;10.67;;;5.30;;
6141;SDS011;71289;51.552;6.210;2023-07-31T12:15:32;8.07;;;5.10;;
6141;SDS011;71289;51.552;6.210;2023-07-31T12:18:06;9.10;;;5.50;;
6141;SDS011;71289;51.552;6.210;2023-07-31T12:20:33;8.97;;;4.97;;
6141;SDS011;71289;51.552;6.210;2023-07-31T12:22:59;8.43;;;5.03;;
6141;SDS011;71289;51.552;6.210;2023-07-31T12:25:28;7.97;;;4.60;;
6141;SDS011;71289;51.552;6.210;2023-07-31T12:27:58;6.60;;;4.70;;
6141;SDS011;71289;51.552;6.210;2023-07-31T12:30:32;8.27;;;4.20;;
6141;SDS011;71289;51.552;6.210;2023-07-31T12:33:05;10.97;;;4.87;;
6141;SDS011;71289;51.552;6.210;2023-07-31T12:35:36;16.80;;;5.07;;
6141;SDS011;71289;51.552;6.210;2023-07-31T12:38:03;9.93;;;5.00;;
6141;SDS011;71289;51.552;6.210;2023-07-31T12:40:28;7.67;;;5.33;;
6141;SDS011;71289;51.552;6.210;2023-07-31T12:42:54;10.00;;;5.10;;
6141;SDS011;71289;51.552;6.210;2023-07-31T12:45:19;5.87;;;5.20;;
6141;SDS011;71289;51.552;6.210;2023-07-31T12:47:46;10.00;;;5.20;;
6141;SDS011;71289;51.552;6.210;2023-07-31T12:50:12;8.47;;;5.10;;
6141;SDS011;71289;51.552;6.210;2023-07-31T12:52:37;9.07;;;5.90;;
6141;SDS011;71289;51.552;6.210;2023-07-31T12:55:03;8.10;;;5.13;;
6141;SDS011;71289;51.552;6.210;2023-07-31T12:57:29;18.07;;;5.80;;
6141;SDS011;71289;51.552;6.210;2023-07-31T12:59:55;10.90;;;5.70;;
6141;SDS011;71289;51.552;6.210;2023-07-31T13:02:21;12.57;;;5.93;;
6141;SDS011;71289;51.552;6.210;2023-07-31T13:04:46;10.23;;;5.47;;
6141;SDS011;71289;51.552;6.210;2023-07-31T13:07:12;9.80;;;6.70;;
6141;SDS011;71289;51.552;6.210;2023-07-31T13:09:37;8.87;;;6.90;;
6141;SDS011;71289;51.552;6.210;2023-07-31T13:12:03;13.53;;;8.50;;
6141;SDS011;71289;51.552;6.210;2023-07-31T13:14:29;16.10;;;7.57;;
6141;SDS011;71289;51.552;6.210;2023-07-31T13:16:54;10.73;;;6.80;;
6141;SDS011;71289;51.552;6.210;2023-07-31T13:19:20;9.43;;;7.37;;
6141;SDS011;71289;51.552;6.210;2023-07-31T13:21:45;12.83;;;7.90;;
6141;SDS011;71289;51.552;6.210;2023-07-31T13:24:11;7.83;;;6.57;;
6141;SDS011;71289;51.552;6.210;2023-07-31T13:26:37;11.57;;;6.57;;
6141;SDS011;71289;51.552;6.210;2023-07-31T13:29:02;17.27;;;7.63;;
6141;SDS011;71289;51.552;6.210;2023-07-31T13:31:28;11.77;;;6.80;;
6141;SDS011;71289;51.552;6.210;2023-07-31T13:33:53;11.33;;;6.90;;
6141;SDS011;71289;51.552;6.210;2023-07-31T13:36:19;11.23;;;6.60;;
6141;SDS011;71289;51.552;6.210;2023-07-31T13:38:44;15.30;;;8.43;;
6141;SDS011;71289;51.552;6.210;2023-07-31T13:41:10;10.83;;;7.27;;
6141;SDS011;71289;51.552;6.210;2023-07-31T13:43:35;10.80;;;7.53;;
6141;SDS011;71289;51.552;6.210;2023-07-31T13:46:01;10.80;;;7.57;;
6141;SDS011;71289;51.552;6.210;2023-07-31T13:48:34;22.93;;;7.30;;
6141;SDS011;71289;51.552;6.210;2023-07-31T13:51:00;13.50;;;8.27;;
6141;SDS011;71289;51.552;6.210;2023-07-31T13:53:25;16.47;;;9.17;;
6141;SDS011;71289;51.552;6.210;2023-07-31T13:55:51;13.60;;;8.47;;
6141;SDS011;71289;51.552;6.210;2023-07-31T13:58:17;10.27;;;7.80;;
6141;SDS011;71289;51.552;6.210;2023-07-31T14:00:42;22.23;;;7.53;;
6141;SDS011;71289;51.552;6.210;2023-07-31T14:03:08;11.50;;;7.80;;
6141;SDS011;71289;51.552;6.210;2023-07-31T14:05:33;16.67;;;8.50;;
6141;SDS011;71289;51.552;6.210;2023-07-31T14:07:59;15.97;;;8.07;;
6141;SDS011;71289;51.552;6.210;2023-07-31T14:10:25;16.10;;;8.00;;
6141;SDS011;71289;51.552;6.210;2023-07-31T14:12:51;11.73;;;7.03;;
6141;SDS011;71289;51.552;6.210;2023-07-31T14:15:16;11.67;;;7.20;;
6141;SDS011;71289;51.552;6.210;2023-07-31T14:17:42;12.20;;;6.93;;
6141;SDS011;71289;51.552;6.210;2023-07-31T14:20:07;13.20;;;7.77;;
6141;SDS011;71289;51.552;6.210;2023-07-31T14:22:34;12.03;;;7.57;;
6141;SDS011;71289;51.552;6.210;2023-07-31T14:24:59;9.70;;;6.93;;
6141;SDS011;71289;51.552;6.210;2023-07-31T14:27:25;20.60;;;7.93;;
6141;SDS011;71289;51.552;6.210;2023-07-31T14:29:51;13.27;;;7.60;;
6141;SDS011;71289;51.552;6.210;2023-07-31T14:32:16;13.17;;;8.90;;
6141;SDS011;71289;51.552;6.210;2023-07-31T14:34:42;15.93;;;7.00;;
6141;SDS011;71289;51.552;6.210;2023-07-31T14:37:07;12.73;;;8.03;;
6141;SDS011;71289;51.552;6.210;2023-07-31T14:39:33;12.17;;;7.90;;
6141;SDS011;71289;51.552;6.210;2023-07-31T14:41:58;14.27;;;8.53;;
6141;SDS011;71289;51.552;6.210;2023-07-31T14:44:24;15.23;;;8.57;;
6141;SDS011;71289;51.552;6.210;2023-07-31T14:46:49;17.17;;;9.20;;
6141;SDS011;71289;51.552;6.210;2023-07-31T14:49:15;20.37;;;10.97;;
6141;SDS011;71289;51.552;6.210;2023-07-31T14:51:40;23.30;;;9.73;;